sensor_id;sensor_type;location;lat;lon;timestamp;P1;durP1;ratioP1;P2;durP2;ratioP2
32625;SDS011;19038;50.922;11.880;2022-12-01T00:03:46;24.17;;;17.57;;
32625;SDS011;19038;50.922;11.880;2022-12-01T00:08:47;26.37;;;18.57;;
32625;SDS011;19038;50.922;11.880;2022-12-01T00:13:46;26.27;;;19.60;;
32625;SDS011;19038;50.922;11.880;2022-12-01T00:18:48;27.07;;;20.17;;
32625;SDS011;19038;50.922;11.880;2022-12-01T00:23:47;27.50;;;18.90;;
32625;SDS011;19038;50.922;11.880;2022-12-01T00:28:47;25.80;;;17.03;;
32625;SDS011;19038;50.922;11.880;2022-12-01T00:33:47;28.60;;;19.47;;
32625;SDS011;19038;50.922;11.880;2022-12-01T00:38:46;35.00;;;21.13;;
32625;SDS011;19038;50.922;11.880;2022-12-01T00:43:46;32.90;;;21.20;;
32625;SDS011;19038;50.922;11.880;2022-12-01T00:48:46;26.40;;;17.40;;
32625;SDS011;19038;50.922;11.880;2022-12-01T00:53:46;32.10;;;19.50;;
32625;SDS011;19038;50.922;11.880;2022-12-01T00:58:46;27.77;;;19.10;;
32625;SDS011;19038;50.922;11.880;2022-12-01T01:03:46;23.60;;;16.60;;
32625;SDS011;19038;50.922;11.880;2022-12-01T01:08:46;23.03;;;16.77;;
32625;SDS011;19038;50.922;11.880;2022-12-01T01:13:46;23.23;;;15.37;;
32625;SDS011;19038;50.922;11.880;2022-12-01T01:18:47;23.50;;;16.10;;
32625;SDS011;19038;50.922;11.880;2022-12-01T01:23:47;22.10;;;16.43;;
32625;SDS011;19038;50.922;11.880;2022-12-01T01:28:47;25.53;;;17.93;;
32625;SDS011;19038;50.922;11.880;2022-12-01T01:33:46;25.10;;;16.63;;
32625;SDS011;19038;50.922;11.880;2022-12-01T01:38:47;28.83;;;19.00;;
32625;SDS011;19038;50.922;11.880;2022-12-01T01:43:48;32.57;;;21.00;;
32625;SDS011;19038;50.922;11.880;2022-12-01T01:48:49;34.30;;;23.50;;
32625;SDS011;19038;50.922;11.880;2022-12-01T01:53:46;36.07;;;24.17;;
32625;SDS011;19038;50.922;11.880;2022-12-01T01:58:46;37.10;;;24.23;;
32625;SDS011;19038;50.922;11.880;2022-12-01T02:03:46;33.67;;;22.40;;
32625;SDS011;19038;50.922;11.880;2022-12-01T02:08:46;34.43;;;23.37;;
32625;SDS011;19038;50.922;11.880;2022-12-01T02:13:50;36.80;;;25.37;;
32625;SDS011;19038;50.922;11.880;2022-12-01T02:23:53;37.53;;;23.50;;
32625;SDS011;19038;50.922;11.880;2022-12-01T02:28:53;34.40;;;23.60;;
32625;SDS011;19038;50.922;11.880;2022-12-01T02:43:51;40.97;;;26.17;;
32625;SDS011;19038;50.922;11.880;2022-12-01T02:48:47;43.60;;;28.40;;
32625;SDS011;19038;50.922;11.880;2022-12-01T02:53:46;44.90;;;26.90;;
32625;SDS011;19038;50.922;11.880;2022-12-01T02:58:46;47.03;;;30.60;;
32625;SDS011;19038;50.922;11.880;2022-12-01T03:08:49;48.17;;;30.50;;
32625;SDS011;19038;50.922;11.880;2022-12-01T03:13:50;51.23;;;29.90;;
32625;SDS011;19038;50.922;11.880;2022-12-01T03:18:50;52.87;;;30.00;;
32625;SDS011;19038;50.922;11.880;2022-12-01T03:23:48;52.97;;;30.33;;
32625;SDS011;19038;50.922;11.880;2022-12-01T03:28:49;51.87;;;30.73;;
32625;SDS011;19038;50.922;11.880;2022-12-01T03:33:49;50.60;;;30.33;;
32625;SDS011;19038;50.922;11.880;2022-12-01T03:38:48;54.57;;;30.83;;
32625;SDS011;19038;50.922;11.880;2022-12-01T03:43:50;54.43;;;32.40;;
32625;SDS011;19038;50.922;11.880;2022-12-01T03:48:46;55.80;;;30.70;;
32625;SDS011;19038;50.922;11.880;2022-12-01T03:58:47;50.07;;;28.27;;
32625;SDS011;19038;50.922;11.880;2022-12-01T04:03:47;61.20;;;32.80;;
32625;SDS011;19038;50.922;11.880;2022-12-01T04:08:46;56.13;;;30.30;;
32625;SDS011;19038;50.922;11.880;2022-12-01T04:13:46;50.70;;;28.90;;
32625;SDS011;19038;50.922;11.880;2022-12-01T04:18:46;58.97;;;29.53;;
32625;SDS011;19038;50.922;11.880;2022-12-01T04:23:47;62.50;;;31.03;;
32625;SDS011;19038;50.922;11.880;2022-12-01T04:28:47;58.07;;;30.83;;
32625;SDS011;19038;50.922;11.880;2022-12-01T04:33:46;62.13;;;33.40;;
32625;SDS011;19038;50.922;11.880;2022-12-01T04:38:46;58.73;;;31.73;;
32625;SDS011;19038;50.922;11.880;2022-12-01T04:43:46;53.80;;;29.30;;
32625;SDS011;19038;50.922;11.880;2022-12-01T04:48:47;58.27;;;32.43;;
32625;SDS011;19038;50.922;11.880;2022-12-01T04:53:47;62.77;;;31.53;;
32625;SDS011;19038;50.922;11.880;2022-12-01T04:58:46;62.30;;;33.90;;
32625;SDS011;19038;50.922;11.880;2022-12-01T05:03:46;73.60;;;31.67;;
32625;SDS011;19038;50.922;11.880;2022-12-01T05:08:55;62.27;;;30.80;;
32625;SDS011;19038;50.922;11.880;2022-12-01T05:13:49;64.60;;;31.40;;
32625;SDS011;19038;50.922;11.880;2022-12-01T05:18:49;61.30;;;31.23;;
32625;SDS011;19038;50.922;11.880;2022-12-01T05:23:46;60.37;;;31.77;;
32625;SDS011;19038;50.922;11.880;2022-12-01T05:33:46;71.50;;;32.17;;
32625;SDS011;19038;50.922;11.880;2022-12-01T05:38:48;67.50;;;33.20;;
32625;SDS011;19038;50.922;11.880;2022-12-01T05:43:47;63.43;;;33.40;;
32625;SDS011;19038;50.922;11.880;2022-12-01T05:48:46;64.80;;;32.63;;
32625;SDS011;19038;50.922;11.880;2022-12-01T05:53:46;60.50;;;31.33;;
32625;SDS011;19038;50.922;11.880;2022-12-01T05:58:46;84.37;;;43.10;;
32625;SDS011;19038;50.922;11.880;2022-12-01T06:03:46;70.57;;;34.03;;
32625;SDS011;19038;50.922;11.880;2022-12-01T06:08:46;66.63;;;32.37;;
32625;SDS011;19038;50.922;11.880;2022-12-01T06:13:46;62.00;;;33.23;;
32625;SDS011;19038;50.922;11.880;2022-12-01T06:18:47;56.33;;;28.30;;
32625;SDS011;19038;50.922;11.880;2022-12-01T06:23:46;58.97;;;29.27;;
32625;SDS011;19038;50.922;11.880;2022-12-01T06:28:46;56.03;;;28.60;;
32625;SDS011;19038;50.922;11.880;2022-12-01T06:33:46;60.07;;;30.40;;
32625;SDS011;19038;50.922;11.880;2022-12-01T06:38:46;49.43;;;27.70;;
32625;SDS011;19038;50.922;11.880;2022-12-01T06:43:47;62.63;;;31.87;;
32625;SDS011;19038;50.922;11.880;2022-12-01T06:48:47;85.37;;;54.60;;
32625;SDS011;19038;50.922;11.880;2022-12-01T06:53:46;61.50;;;35.87;;
32625;SDS011;19038;50.922;11.880;2022-12-01T06:58:48;80.80;;;40.47;;
32625;SDS011;19038;50.922;11.880;2022-12-01T07:03:47;63.57;;;29.40;;
32625;SDS011;19038;50.922;11.880;2022-12-01T07:08:46;56.23;;;28.13;;
32625;SDS011;19038;50.922;11.880;2022-12-01T07:13:46;52.67;;;27.20;;
32625;SDS011;19038;50.922;11.880;2022-12-01T07:18:46;61.87;;;28.63;;
32625;SDS011;19038;50.922;11.880;2022-12-01T07:23:46;69.83;;;40.00;;
32625;SDS011;19038;50.922;11.880;2022-12-01T07:28:46;76.33;;;41.27;;
32625;SDS011;19038;50.922;11.880;2022-12-01T07:33:47;58.77;;;30.03;;
32625;SDS011;19038;50.922;11.880;2022-12-01T07:38:46;57.60;;;28.47;;
32625;SDS011;19038;50.922;11.880;2022-12-01T07:43:47;54.20;;;27.50;;
32625;SDS011;19038;50.922;11.880;2022-12-01T07:48:46;50.50;;;24.33;;
32625;SDS011;19038;50.922;11.880;2022-12-01T07:53:47;49.07;;;24.90;;
32625;SDS011;19038;50.922;11.880;2022-12-01T07:58:47;43.83;;;22.33;;
32625;SDS011;19038;50.922;11.880;2022-12-01T08:03:47;48.40;;;23.87;;
32625;SDS011;19038;50.922;11.880;2022-12-01T08:08:47;40.60;;;21.60;;
32625;SDS011;19038;50.922;11.880;2022-12-01T08:13:47;44.10;;;22.10;;
32625;SDS011;19038;50.922;11.880;2022-12-01T08:18:47;45.53;;;23.90;;
32625;SDS011;19038;50.922;11.880;2022-12-01T08:23:47;53.77;;;31.00;;
32625;SDS011;19038;50.922;11.880;2022-12-01T08:28:47;44.93;;;24.57;;
32625;SDS011;19038;50.922;11.880;2022-12-01T08:33:47;38.77;;;21.77;;
32625;SDS011;19038;50.922;11.880;2022-12-01T08:38:47;38.73;;;21.50;;
32625;SDS011;19038;50.922;11.880;2022-12-01T08:43:47;37.20;;;21.40;;
32625;SDS011;19038;50.922;11.880;2022-12-01T08:48:47;43.47;;;23.83;;
32625;SDS011;19038;50.922;11.880;2022-12-01T08:53:47;47.90;;;24.00;;
32625;SDS011;19038;50.922;11.880;2022-12-01T08:58:47;51.37;;;27.80;;
32625;SDS011;19038;50.922;11.880;2022-12-01T09:03:47;49.50;;;26.60;;
32625;SDS011;19038;50.922;11.880;2022-12-01T09:08:47;43.20;;;21.90;;
32625;SDS011;19038;50.922;11.880;2022-12-01T09:13:47;45.43;;;24.60;;
32625;SDS011;19038;50.922;11.880;2022-12-01T09:18:47;48.63;;;24.57;;
32625;SDS011;19038;50.922;11.880;2022-12-01T09:23:47;45.23;;;21.83;;
32625;SDS011;19038;50.922;11.880;2022-12-01T09:28:48;44.60;;;23.57;;
32625;SDS011;19038;50.922;11.880;2022-12-01T09:33:47;45.23;;;22.03;;
32625;SDS011;19038;50.922;11.880;2022-12-01T09:38:47;43.80;;;20.63;;
32625;SDS011;19038;50.922;11.880;2022-12-01T09:43:49;41.93;;;23.33;;
32625;SDS011;19038;50.922;11.880;2022-12-01T09:48:47;49.20;;;23.57;;
32625;SDS011;19038;50.922;11.880;2022-12-01T09:53:47;45.33;;;24.50;;
32625;SDS011;19038;50.922;11.880;2022-12-01T09:58:49;43.00;;;22.53;;
32625;SDS011;19038;50.922;11.880;2022-12-01T10:03:49;45.93;;;24.47;;
32625;SDS011;19038;50.922;11.880;2022-12-01T10:08:55;41.87;;;23.43;;
32625;SDS011;19038;50.922;11.880;2022-12-01T10:13:47;40.10;;;23.83;;
32625;SDS011;19038;50.922;11.880;2022-12-01T10:18:51;44.83;;;25.27;;
32625;SDS011;19038;50.922;11.880;2022-12-01T10:23:56;39.43;;;22.40;;
32625;SDS011;19038;50.922;11.880;2022-12-01T10:28:51;41.07;;;22.57;;
32625;SDS011;19038;50.922;11.880;2022-12-01T10:38:47;41.30;;;22.13;;
32625;SDS011;19038;50.922;11.880;2022-12-01T10:43:49;35.93;;;22.10;;
32625;SDS011;19038;50.922;11.880;2022-12-01T10:48:51;41.27;;;22.10;;
32625;SDS011;19038;50.922;11.880;2022-12-01T10:53:47;45.27;;;22.97;;
32625;SDS011;19038;50.922;11.880;2022-12-01T10:58:49;44.57;;;23.50;;
32625;SDS011;19038;50.922;11.880;2022-12-01T11:03:49;51.90;;;25.33;;
32625;SDS011;19038;50.922;11.880;2022-12-01T11:08:51;47.63;;;24.73;;
32625;SDS011;19038;50.922;11.880;2022-12-01T11:13:47;45.33;;;23.77;;
32625;SDS011;19038;50.922;11.880;2022-12-01T11:18:47;46.17;;;23.07;;
32625;SDS011;19038;50.922;11.880;2022-12-01T11:23:47;48.33;;;24.20;;
32625;SDS011;19038;50.922;11.880;2022-12-01T11:28:52;47.30;;;24.63;;
32625;SDS011;19038;50.922;11.880;2022-12-01T11:33:51;51.93;;;23.27;;
32625;SDS011;19038;50.922;11.880;2022-12-01T11:38:47;44.50;;;22.70;;
32625;SDS011;19038;50.922;11.880;2022-12-01T11:43:47;42.87;;;23.87;;
32625;SDS011;19038;50.922;11.880;2022-12-01T11:48:55;45.00;;;22.80;;
32625;SDS011;19038;50.922;11.880;2022-12-01T11:53:47;50.93;;;25.50;;
32625;SDS011;19038;50.922;11.880;2022-12-01T11:58:47;52.10;;;26.07;;
32625;SDS011;19038;50.922;11.880;2022-12-01T12:03:51;51.37;;;24.17;;
32625;SDS011;19038;50.922;11.880;2022-12-01T12:13:58;50.93;;;23.83;;
32625;SDS011;19038;50.922;11.880;2022-12-01T12:18:50;64.77;;;25.43;;
32625;SDS011;19038;50.922;11.880;2022-12-01T12:39:00;66.80;;;29.50;;
32625;SDS011;19038;50.922;11.880;2022-12-01T12:43:52;52.53;;;27.90;;
32625;SDS011;19038;50.922;11.880;2022-12-01T12:53:48;68.20;;;29.90;;
32625;SDS011;19038;50.922;11.880;2022-12-01T12:58:52;59.90;;;28.00;;
32625;SDS011;19038;50.922;11.880;2022-12-01T13:03:51;62.40;;;28.10;;
32625;SDS011;19038;50.922;11.880;2022-12-01T13:18:49;54.57;;;28.20;;
32625;SDS011;19038;50.922;11.880;2022-12-01T13:23:47;55.90;;;26.57;;
32625;SDS011;19038;50.922;11.880;2022-12-01T13:28:49;55.77;;;26.60;;
32625;SDS011;19038;50.922;11.880;2022-12-01T13:38:52;56.10;;;26.10;;
32625;SDS011;19038;50.922;11.880;2022-12-01T13:48:49;60.37;;;30.90;;
32625;SDS011;19038;50.922;11.880;2022-12-01T13:53:54;57.23;;;26.37;;
32625;SDS011;19038;50.922;11.880;2022-12-01T13:58:49;59.20;;;29.50;;
32625;SDS011;19038;50.922;11.880;2022-12-01T14:03:53;61.30;;;28.17;;
32625;SDS011;19038;50.922;11.880;2022-12-01T14:08:48;70.40;;;29.17;;
32625;SDS011;19038;50.922;11.880;2022-12-01T14:13:49;70.77;;;31.33;;
32625;SDS011;19038;50.922;11.880;2022-12-01T14:18:48;66.20;;;31.43;;
32625;SDS011;19038;50.922;11.880;2022-12-01T14:33:50;65.80;;;31.00;;
32625;SDS011;19038;50.922;11.880;2022-12-01T14:38:47;65.23;;;33.20;;
32625;SDS011;19038;50.922;11.880;2022-12-01T14:43:47;75.70;;;36.73;;
32625;SDS011;19038;50.922;11.880;2022-12-01T14:48:47;71.07;;;37.80;;
32625;SDS011;19038;50.922;11.880;2022-12-01T14:53:47;67.50;;;35.40;;
32625;SDS011;19038;50.922;11.880;2022-12-01T14:58:51;65.17;;;31.40;;
32625;SDS011;19038;50.922;11.880;2022-12-01T15:03:48;67.70;;;32.40;;
32625;SDS011;19038;50.922;11.880;2022-12-01T15:13:48;59.57;;;29.53;;
32625;SDS011;19038;50.922;11.880;2022-12-01T15:18:47;60.03;;;30.17;;
32625;SDS011;19038;50.922;11.880;2022-12-01T15:23:51;70.77;;;32.90;;
32625;SDS011;19038;50.922;11.880;2022-12-01T15:28:47;74.20;;;33.20;;
32625;SDS011;19038;50.922;11.880;2022-12-01T15:33:49;71.00;;;37.70;;
32625;SDS011;19038;50.922;11.880;2022-12-01T15:38:47;91.93;;;49.80;;
32625;SDS011;19038;50.922;11.880;2022-12-01T15:48:47;66.23;;;34.47;;
32625;SDS011;19038;50.922;11.880;2022-12-01T15:53:49;69.77;;;31.87;;
32625;SDS011;19038;50.922;11.880;2022-12-01T15:58:49;68.77;;;32.07;;
32625;SDS011;19038;50.922;11.880;2022-12-01T16:03:50;66.00;;;31.97;;
32625;SDS011;19038;50.922;11.880;2022-12-01T16:08:51;69.23;;;33.93;;
32625;SDS011;19038;50.922;11.880;2022-12-01T16:13:54;70.07;;;34.43;;
32625;SDS011;19038;50.922;11.880;2022-12-01T16:23:47;65.40;;;30.77;;
32625;SDS011;19038;50.922;11.880;2022-12-01T16:28:47;63.13;;;30.37;;
32625;SDS011;19038;50.922;11.880;2022-12-01T16:33:47;60.70;;;30.77;;
32625;SDS011;19038;50.922;11.880;2022-12-01T16:38:47;69.53;;;30.83;;
32625;SDS011;19038;50.922;11.880;2022-12-01T16:43:47;61.20;;;28.17;;
32625;SDS011;19038;50.922;11.880;2022-12-01T16:48:47;58.30;;;28.07;;
32625;SDS011;19038;50.922;11.880;2022-12-01T16:53:47;59.07;;;29.90;;
32625;SDS011;19038;50.922;11.880;2022-12-01T16:58:47;73.87;;;34.43;;
32625;SDS011;19038;50.922;11.880;2022-12-01T17:03:47;60.70;;;30.27;;
32625;SDS011;19038;50.922;11.880;2022-12-01T17:08:47;58.67;;;31.23;;
32625;SDS011;19038;50.922;11.880;2022-12-01T17:13:47;59.47;;;31.17;;
32625;SDS011;19038;50.922;11.880;2022-12-01T17:18:47;62.40;;;30.80;;
32625;SDS011;19038;50.922;11.880;2022-12-01T17:23:47;58.63;;;29.20;;
32625;SDS011;19038;50.922;11.880;2022-12-01T17:28:47;60.37;;;28.97;;
32625;SDS011;19038;50.922;11.880;2022-12-01T17:33:47;73.13;;;36.13;;
32625;SDS011;19038;50.922;11.880;2022-12-01T17:38:47;95.13;;;47.60;;
32625;SDS011;19038;50.922;11.880;2022-12-01T17:43:47;55.73;;;28.10;;
32625;SDS011;19038;50.922;11.880;2022-12-01T17:48:47;54.43;;;27.80;;
32625;SDS011;19038;50.922;11.880;2022-12-01T17:53:47;50.40;;;27.33;;
32625;SDS011;19038;50.922;11.880;2022-12-01T17:58:47;49.17;;;26.70;;
32625;SDS011;19038;50.922;11.880;2022-12-01T18:03:47;54.77;;;27.20;;
32625;SDS011;19038;50.922;11.880;2022-12-01T18:08:47;46.20;;;25.23;;
32625;SDS011;19038;50.922;11.880;2022-12-01T18:13:47;49.60;;;25.63;;
32625;SDS011;19038;50.922;11.880;2022-12-01T18:18:47;51.07;;;25.90;;
32625;SDS011;19038;50.922;11.880;2022-12-01T18:23:51;49.40;;;24.73;;
32625;SDS011;19038;50.922;11.880;2022-12-01T18:28:53;51.83;;;29.63;;
32625;SDS011;19038;50.922;11.880;2022-12-01T18:33:47;54.77;;;28.03;;
32625;SDS011;19038;50.922;11.880;2022-12-01T18:38:47;49.57;;;26.87;;
32625;SDS011;19038;50.922;11.880;2022-12-01T18:43:47;52.50;;;29.83;;
32625;SDS011;19038;50.922;11.880;2022-12-01T18:48:48;52.67;;;27.80;;
32625;SDS011;19038;50.922;11.880;2022-12-01T18:53:47;88.37;;;51.07;;
32625;SDS011;19038;50.922;11.880;2022-12-01T18:58:52;114.60;;;59.80;;
32625;SDS011;19038;50.922;11.880;2022-12-01T19:03:47;61.80;;;30.50;;
32625;SDS011;19038;50.922;11.880;2022-12-01T19:08:47;49.43;;;27.60;;
32625;SDS011;19038;50.922;11.880;2022-12-01T19:13:47;65.80;;;37.47;;
32625;SDS011;19038;50.922;11.880;2022-12-01T19:18:47;50.07;;;26.27;;
32625;SDS011;19038;50.922;11.880;2022-12-01T19:23:47;49.90;;;27.70;;
32625;SDS011;19038;50.922;11.880;2022-12-01T19:28:47;52.53;;;26.00;;
32625;SDS011;19038;50.922;11.880;2022-12-01T19:33:47;51.83;;;24.33;;
32625;SDS011;19038;50.922;11.880;2022-12-01T19:38:47;55.60;;;26.40;;
32625;SDS011;19038;50.922;11.880;2022-12-01T19:43:47;54.33;;;28.83;;
32625;SDS011;19038;50.922;11.880;2022-12-01T19:48:51;46.20;;;24.33;;
32625;SDS011;19038;50.922;11.880;2022-12-01T19:53:47;44.63;;;24.10;;
32625;SDS011;19038;50.922;11.880;2022-12-01T19:58:47;41.60;;;23.63;;
32625;SDS011;19038;50.922;11.880;2022-12-01T20:03:47;46.43;;;25.50;;
32625;SDS011;19038;50.922;11.880;2022-12-01T20:08:47;39.87;;;27.13;;
32625;SDS011;19038;50.922;11.880;2022-12-01T20:13:47;42.33;;;25.30;;
32625;SDS011;19038;50.922;11.880;2022-12-01T20:18:47;38.70;;;20.57;;
32625;SDS011;19038;50.922;11.880;2022-12-01T20:23:49;40.83;;;22.03;;
32625;SDS011;19038;50.922;11.880;2022-12-01T20:28:48;39.87;;;22.70;;
32625;SDS011;19038;50.922;11.880;2022-12-01T20:33:47;41.23;;;22.80;;
32625;SDS011;19038;50.922;11.880;2022-12-01T20:38:47;37.83;;;23.47;;
32625;SDS011;19038;50.922;11.880;2022-12-01T20:43:47;41.80;;;23.47;;
32625;SDS011;19038;50.922;11.880;2022-12-01T20:48:47;39.33;;;22.07;;
32625;SDS011;19038;50.922;11.880;2022-12-01T20:53:47;43.50;;;23.00;;
32625;SDS011;19038;50.922;11.880;2022-12-01T20:58:47;39.10;;;21.00;;
32625;SDS011;19038;50.922;11.880;2022-12-01T21:03:47;35.40;;;22.30;;
32625;SDS011;19038;50.922;11.880;2022-12-01T21:08:48;37.63;;;22.47;;
32625;SDS011;19038;50.922;11.880;2022-12-01T21:13:47;45.50;;;23.50;;
32625;SDS011;19038;50.922;11.880;2022-12-01T21:18:51;37.10;;;21.57;;
32625;SDS011;19038;50.922;11.880;2022-12-01T21:23:52;35.73;;;18.97;;
32625;SDS011;19038;50.922;11.880;2022-12-01T21:28:47;39.10;;;25.10;;
32625;SDS011;19038;50.922;11.880;2022-12-01T21:33:47;39.50;;;22.50;;
32625;SDS011;19038;50.922;11.880;2022-12-01T21:38:48;41.80;;;26.50;;
32625;SDS011;19038;50.922;11.880;2022-12-01T21:43:47;34.50;;;23.23;;
32625;SDS011;19038;50.922;11.880;2022-12-01T21:48:47;35.60;;;21.00;;
32625;SDS011;19038;50.922;11.880;2022-12-01T21:53:47;54.33;;;32.67;;
32625;SDS011;19038;50.922;11.880;2022-12-01T21:58:47;53.90;;;32.03;;
32625;SDS011;19038;50.922;11.880;2022-12-01T22:03:47;33.47;;;19.50;;
32625;SDS011;19038;50.922;11.880;2022-12-01T22:08:49;66.90;;;37.60;;
32625;SDS011;19038;50.922;11.880;2022-12-01T22:13:50;35.27;;;20.03;;
32625;SDS011;19038;50.922;11.880;2022-12-01T22:18:48;37.10;;;21.57;;
32625;SDS011;19038;50.922;11.880;2022-12-01T22:23:48;34.07;;;20.20;;
32625;SDS011;19038;50.922;11.880;2022-12-01T22:28:50;26.83;;;17.27;;
32625;SDS011;19038;50.922;11.880;2022-12-01T22:38:47;34.57;;;19.60;;
32625;SDS011;19038;50.922;11.880;2022-12-01T22:43:49;36.03;;;19.30;;
32625;SDS011;19038;50.922;11.880;2022-12-01T22:48:49;33.93;;;21.00;;
32625;SDS011;19038;50.922;11.880;2022-12-01T22:53:47;33.83;;;19.13;;
32625;SDS011;19038;50.922;11.880;2022-12-01T22:58:47;33.47;;;20.27;;
32625;SDS011;19038;50.922;11.880;2022-12-01T23:03:47;41.47;;;21.90;;
32625;SDS011;19038;50.922;11.880;2022-12-01T23:08:47;35.03;;;21.57;;
32625;SDS011;19038;50.922;11.880;2022-12-01T23:13:47;39.37;;;22.30;;
32625;SDS011;19038;50.922;11.880;2022-12-01T23:18:47;36.70;;;22.60;;
32625;SDS011;19038;50.922;11.880;2022-12-01T23:23:47;37.40;;;19.63;;
32625;SDS011;19038;50.922;11.880;2022-12-01T23:28:47;34.80;;;21.70;;
32625;SDS011;19038;50.922;11.880;2022-12-01T23:33:47;37.20;;;20.97;;
32625;SDS011;19038;50.922;11.880;2022-12-01T23:38:48;40.40;;;21.03;;
32625;SDS011;19038;50.922;11.880;2022-12-01T23:43:47;41.57;;;23.40;;
32625;SDS011;19038;50.922;11.880;2022-12-01T23:48:48;36.90;;;21.93;;
32625;SDS011;19038;50.922;11.880;2022-12-01T23:53:47;34.30;;;20.20;;
32625;SDS011;19038;50.922;11.880;2022-12-01T23:58:47;34.50;;;19.13;;
